Time;durP1;ratioP1;P1;durP2;ratioP2;P2;SDS_P1;SDS_P2;PMS_P1;PMS_P2;Temp;Humidity;BMP_temperature;BMP_pressure;BME280_temperature;BME280_humidity;BME280_pressure;Samples;Min_cycle;Max_cycle;Signal;HPM_P1;HPM_P2
2023/01/13 00:00:00;;;;;;;1.50;1.30;;;;;;;13.01;67.02;99839.94;694039;28;1328;-85
2023/01/13 00:00:21;;;;;;;1.30;1.20;;;;;;;12.92;67.01;99826.78;688707;28;1208;-85
2023/01/13 00:00:42;;;;;;;1.10;1.10;;;;;;;12.95;67.15;99839.91;694101;28;1173;-85
2023/01/13 00:01:10;;;;;;;1.30;1.20;;;;;;;13.00;66.87;99865.28;694003;28;1277;-85
2023/01/13 00:01:30;;;;;;;1.40;1.30;;;;;;;12.99;66.75;99855.66;694127;28;1242;-83
2023/01/13 00:01:51;;;;;;;1.40;1.27;;;;;;;12.97;66.88;99849.53;696704;28;1301;-85
2023/01/13 00:02:12;;;;;;;1.40;1.30;;;;;;;12.95;66.61;99848.66;694235;28;1101;-86
2023/01/13 00:02:32;;;;;;;1.85;1.40;;;;;;;12.89;66.75;99836.41;696861;28;731;-85
2023/01/13 00:02:53;;;;;;;1.60;1.50;;;;;;;12.83;67.00;99825.91;688499;28;1268;-84
2023/01/13 00:03:14;;;;;;;1.80;1.60;;;;;;;12.81;66.90;99839.84;688913;28;1223;-84
2023/01/13 00:03:35;;;;;;;1.75;1.65;;;;;;;12.77;67.09;99825.00;688037;28;1285;-85
2023/01/13 00:03:56;;;;;;;1.63;1.52;;;;;;;12.77;67.02;99846.81;688572;28;1110;-85
2023/01/13 00:04:17;;;;;;;1.50;1.40;;;;;;;12.69;67.03;99838.06;691384;28;1243;-84
2023/01/13 00:04:37;;;;;;;1.47;1.37;;;;;;;12.68;66.92;99836.31;688614;28;1166;-83
2023/01/13 00:04:58;;;;;;;1.50;1.40;;;;;;;12.70;66.79;99835.44;688639;28;1138;-84
2023/01/13 00:05:19;;;;;;;1.48;1.27;;;;;;;12.68;67.24;99837.19;691334;28;1138;-84
2023/01/13 00:05:39;;;;;;;1.60;1.30;;;;;;;12.61;67.27;99846.75;691341;28;1060;-84
2023/01/13 00:06:00;;;;;;;1.67;1.38;;;;;;;12.70;66.69;99826.72;688634;28;1526;-84
2023/01/13 00:06:24;;;;;;;1.63;1.50;;;;;;;12.70;66.93;99838.06;691366;28;1278;-84
2023/01/13 00:06:45;;;;;;;1.80;1.60;;;;;;;12.59;66.92;99826.66;693842;28;1305;-84
2023/01/13 00:07:06;;;;;;;1.60;1.50;;;;;;;12.61;66.80;99823.19;696752;28;1215;-84
2023/01/13 00:07:26;;;;;;;1.50;1.40;;;;;;;12.59;66.74;99840.63;688766;28;1203;-84
2023/01/13 00:07:48;;;;;;;1.30;1.20;;;;;;;12.51;66.90;99824.03;685913;28;1331;-84
2023/01/13 00:08:09;;;;;;;1.35;1.10;;;;;;;12.47;67.05;99822.25;691407;28;988;-84
2023/01/13 00:08:49;;;;;;;1.20;1.10;;;;;;;12.45;67.30;99829.22;691427;28;1277;-84
2023/01/13 00:09:10;;;;;;;1.08;1.08;;;;;;;12.42;67.09;99829.22;688625;28;1295;-84
2023/01/13 00:09:30;;;;;;;1.00;1.00;;;;;;;12.41;67.10;99837.94;688775;28;874;-84
2023/01/13 00:09:51;;;;;;;1.90;1.20;;;;;;;12.40;67.33;99846.66;691489;28;1389;-85
2023/01/13 00:10:12;;;;;;;2.20;1.20;;;;;;;12.32;67.44;99823.94;694017;28;1195;-83
2023/01/13 00:10:33;;;;;;;2.10;1.10;;;;;;;12.31;67.12;99822.16;691409;28;1217;-84
2023/01/13 00:10:54;;;;;;;1.23;1.00;;;;;;;12.33;67.28;99841.38;691180;28;1373;-84
2023/01/13 00:11:14;;;;;;;1.10;1.00;;;;;;;12.29;67.39;99834.38;688634;28;1121;-84
2023/01/13 00:11:35;;;;;;;1.30;1.10;;;;;;;12.30;67.54;99820.41;685845;28;1146;-84
2023/01/13 00:11:56;;;;;;;1.60;1.10;;;;;;;12.37;67.27;99828.31;691033;28;1408;-85
2023/01/13 00:12:16;;;;;;;1.58;1.10;;;;;;;12.41;67.31;99837.94;691407;28;1102;-84
2023/01/13 00:12:41;;;;;;;1.33;1.17;;;;;;;12.40;67.05;99829.19;694015;28;1158;-86
2023/01/13 00:13:03;;;;;;;1.30;1.20;;;;;;;12.33;67.18;99809.09;693882;28;1256;-84
2023/01/13 00:13:26;;;;;;;1.20;1.20;;;;;;;12.34;67.01;99837.91;691183;28;1029;-86
2023/01/13 00:13:47;;;;;;;1.30;1.20;;;;;;;12.31;67.16;99822.16;688559;28;1088;-83
2023/01/13 00:14:08;;;;;;;1.40;1.30;;;;;;;12.20;67.23;99814.28;688729;28;981;-85
2023/01/13 00:14:29;;;;;;;1.40;1.30;;;;;;;12.25;67.05;99810.78;694092;28;1277;-84
2023/01/13 00:14:49;;;;;;;1.70;1.20;;;;;;;12.22;67.18;99801.19;694030;28;1134;-84
2023/01/13 00:15:10;;;;;;;2.50;1.20;;;;;;;12.19;67.33;99811.66;691289;28;991;-83
2023/01/13 00:15:32;;;;;;;2.17;1.10;;;;;;;12.20;67.24;99808.16;691400;28;1384;-87
2023/01/13 00:16:01;;;;;;;1.35;1.10;;;;;;;12.16;67.46;99796.81;691179;28;1262;-83
2023/01/13 00:16:22;;;;;;;1.20;1.10;;;;;;;12.11;67.33;99797.66;688622;28;1914;-85
2023/01/13 00:16:42;;;;;;;1.30;1.20;;;;;;;12.20;67.17;99823.84;688466;28;1076;-87
2023/01/13 00:17:03;;;;;;;1.30;1.20;;;;;;;12.16;67.40;99812.50;685678;28;1188;-85
2023/01/13 00:17:24;;;;;;;1.50;1.40;;;;;;;12.10;67.66;99803.75;686021;28;947;-86
2023/01/13 00:17:44;;;;;;;1.50;1.30;;;;;;;12.10;67.29;99806.38;685966;28;1157;-86
2023/01/13 00:18:05;;;;;;;1.70;1.30;;;;;;;12.14;67.62;99823.81;688471;28;1139;-87
2023/01/13 00:18:26;;;;;;;1.80;1.10;;;;;;;12.16;67.22;99811.63;691350;28;1137;-86
2023/01/13 00:18:47;;;;;;;1.60;1.20;;;;;;;12.10;67.19;99795.91;693888;28;1267;-87
2023/01/13 00:19:08;;;;;;;1.25;1.10;;;;;;;12.17;67.10;99813.38;691327;28;1260;-84
2023/01/13 00:19:29;;;;;;;1.80;1.10;;;;;;;12.07;67.15;99813.31;696601;28;1246;-87
2023/01/13 00:19:50;;;;;;;1.73;1.10;;;;;;;11.96;67.58;99804.53;691251;28;1287;-87
2023/01/13 00:20:10;;;;;;;1.80;1.10;;;;;;;12.02;67.33;99809.81;688628;28;1153;-86
2023/01/13 00:20:31;;;;;;;1.10;1.10;;;;;;;12.05;67.51;99804.56;691660;28;1237;-87
2023/01/13 00:21:02;;;;;;;1.20;1.10;;;;;;;12.01;67.51;99821.13;691134;28;1293;-86
2023/01/13 00:21:24;;;;;;;1.08;1.00;;;;;;;12.12;67.27;99808.13;694122;28;1542;-85
2023/01/13 00:21:45;;;;;;;1.10;1.05;;;;;;;12.12;67.20;99805.50;688594;28;1123;-85
2023/01/13 00:22:05;;;;;;;1.27;1.13;;;;;;;12.11;67.33;99805.50;685820;28;1151;-85
2023/01/13 00:22:26;;;;;;;1.50;1.15;;;;;;;12.10;67.21;99822.06;686041;28;803;-87
2023/01/13 00:22:46;;;;;;;1.25;1.10;;;;;;;11.95;67.34;99810.63;691194;28;1176;-84
2023/01/13 00:23:07;;;;;;;1.17;1.07;;;;;;;12.00;67.06;99808.03;691360;28;1105;-85
2023/01/13 00:23:30;;;;;;;1.50;1.10;;;;;;;11.92;67.43;99801.00;688686;28;1228;-85
2023/01/13 00:23:52;;;;;;;1.55;1.10;;;;;;;11.95;67.28;99805.41;688446;28;1451;-87
2023/01/13 00:24:13;;;;;;;1.40;1.00;;;;;;;11.98;67.59;99801.94;691509;28;1179;-86
2023/01/13 00:24:34;;;;;;;1.13;1.00;;;;;;;11.96;67.38;99812.38;691425;28;1328;-87
2023/01/13 00:24:57;;;;;;;1.83;1.00;;;;;;;11.98;67.42;99826.31;691284;28;1184;-87
2023/01/13 00:25:17;;;;;;;1.90;1.00;;;;;;;11.96;67.22;99807.13;691297;28;1268;-86
2023/01/13 00:25:38;;;;;;;1.67;1.03;;;;;;;12.01;67.03;99813.28;688681;28;1187;-85
2023/01/13 00:26:04;;;;;;;1.30;1.10;;;;;;;12.03;67.21;99816.78;691400;28;1003;-87
2023/01/13 00:26:29;;;;;;;1.50;1.30;;;;;;;12.01;67.23;99822.84;691481;28;866;-87
2023/01/13 00:26:51;;;;;;;1.90;1.20;;;;;;;12.06;67.11;99834.22;691182;28;1198;-87
2023/01/13 00:27:12;;;;;;;2.00;1.10;;;;;;;12.04;67.29;99807.22;688629;28;1178;-86
2023/01/13 00:27:33;;;;;;;2.10;1.13;;;;;;;11.97;67.29;99824.56;691352;28;1222;-87
2023/01/13 00:27:53;;;;;;;1.65;1.00;;;;;;;12.11;67.58;99826.41;691152;28;1194;-86
2023/01/13 00:28:14;;;;;;;1.60;1.00;;;;;;;12.04;67.42;99818.53;688667;28;1192;-87
2023/01/13 00:28:34;;;;;;;2.10;1.10;;;;;;;12.16;67.51;99824.72;693838;28;1269;-87
2023/01/13 00:28:57;;;;;;;1.70;1.20;;;;;;;12.13;67.17;99828.19;694200;28;987;-86
2023/01/13 00:29:17;;;;;;;1.80;1.30;;;;;;;12.18;67.43;99825.59;696813;28;1342;-86
2023/01/13 00:29:38;;;;;;;1.40;1.30;;;;;;;12.31;66.95;99842.22;693995;28;1177;-87
2023/01/13 00:29:59;;;;;;;1.38;1.20;;;;;;;12.29;67.08;99834.38;691329;28;1337;-87
2023/01/13 00:30:20;;;;;;;1.30;1.20;;;;;;;12.28;66.76;99832.63;688616;28;1125;-87
2023/01/13 00:30:40;;;;;;;1.30;1.20;;;;;;;12.27;66.80;99828.25;694042;28;1313;-87
2023/01/13 00:31:15;;;;;;;1.30;1.20;;;;;;;12.36;66.63;99839.63;694025;28;1239;-87
2023/01/13 00:31:35;;;;;;;1.30;1.20;;;;;;;12.36;66.61;99829.16;691286;28;1142;-87
2023/01/13 00:31:57;;;;;;;1.38;1.27;;;;;;;12.39;66.40;99821.31;691419;28;1060;-87
2023/01/13 00:32:17;;;;;;;1.33;1.23;;;;;;;12.45;66.20;99834.44;694126;28;1196;-87
2023/01/13 00:32:38;;;;;;;1.20;1.10;;;;;;;12.43;65.91;99817.88;691441;28;1136;-87
2023/01/13 00:32:58;;;;;;;1.20;1.07;;;;;;;12.50;66.13;99832.75;688667;28;1202;-87
2023/01/13 00:33:19;;;;;;;1.80;1.10;;;;;;;12.41;66.09;99811.78;688829;28;1203;-87
2023/01/13 00:33:39;;;;;;;1.70;1.10;;;;;;;12.48;65.83;99813.56;694256;28;1078;-87
2023/01/13 00:34:12;;;;;;;1.60;1.10;;;;;;;12.44;65.88;99823.13;694917;28;1261;-86
2023/01/13 00:34:33;;;;;;;1.30;1.20;;;;;;;12.47;65.79;99848.41;692236;28;1084;-87
2023/01/13 00:34:53;;;;;;;1.60;1.40;;;;;;;12.54;65.41;99816.16;692127;28;1047;-87
2023/01/13 00:35:14;;;;;;;1.93;1.47;;;;;;;12.52;65.37;99820.53;689728;28;1208;-87
2023/01/13 00:35:34;;;;;;;2.53;1.70;;;;;;;12.54;65.62;99808.31;694674;28;1178;-87
2023/01/13 00:35:59;;;;;;;2.47;1.60;;;;;;;12.54;65.38;99813.56;692106;28;1111;-86
2023/01/13 00:36:20;;;;;;;2.25;1.60;;;;;;;12.46;65.61;99807.41;692063;28;1919;-86
2023/01/13 00:36:41;;;;;;;1.90;1.40;;;;;;;12.42;65.34;99797.81;700298;28;1248;-87
2023/01/13 00:37:01;;;;;;;1.70;1.30;;;;;;;12.45;65.30;99798.72;702980;28;1228;-86
2023/01/13 00:37:22;;;;;;;1.60;1.30;;;;;;;12.51;65.23;99776.91;694762;28;1253;-87
2023/01/13 00:37:42;;;;;;;1.70;1.50;;;;;;;12.46;65.49;99800.44;689165;28;1065;-87
2023/01/13 00:38:03;;;;;;;1.92;1.70;;;;;;;12.42;65.29;99803.06;697595;28;1114;-87
2023/01/13 00:38:24;;;;;;;1.75;1.65;;;;;;;12.47;65.19;99804.81;697610;28;1236;-87
2023/01/13 00:38:46;;;;;;;1.70;1.60;;;;;;;12.49;65.23;99796.97;697690;28;1101;-87
2023/01/13 00:39:07;;;;;;;1.70;1.60;;;;;;;12.49;65.23;99804.84;697526;28;1192;-87
2023/01/13 00:39:28;;;;;;;2.30;1.70;;;;;;;12.40;65.27;99789.94;692351;28;1154;-87
2023/01/13 00:39:50;;;;;;;2.05;1.60;;;;;;;12.47;65.09;99791.72;689838;28;1427;-88
2023/01/13 00:40:11;;;;;;;2.25;1.80;;;;;;;12.43;64.97;99784.72;689919;28;1342;-88
2023/01/13 00:40:31;;;;;;;1.90;1.80;;;;;;;12.45;64.96;99792.59;691699;28;1266;-87
2023/01/13 00:40:59;;;;;;;1.88;1.77;;;;;;;12.47;65.30;99789.13;691655;28;1154;-87
2023/01/13 00:41:21;;;;;;;1.92;1.50;;;;;;;12.49;65.01;99796.97;688914;28;1201;-87
2023/01/13 00:43:40;;;;;;;2.60;2.10;;;;;;;12.44;65.26;99801.31;698853;28;1037;-87
2023/01/13 00:44:01;;;;;;;3.05;2.40;;;;;;;12.45;65.52;99803.06;694510;28;1351;-87
2023/01/13 00:44:21;;;;;;;3.23;2.30;;;;;;;12.41;65.40;99796.94;694453;28;1039;-86
2023/01/13 00:44:42;;;;;;;3.10;2.20;;;;;;;12.41;65.51;99811.78;694359;28;1112;-85
2023/01/13 00:45:03;;;;;;;2.60;2.00;;;;;;;12.40;65.60;99795.19;689133;28;1368;-87
2023/01/13 00:45:24;;;;;;;3.05;2.10;;;;;;;12.33;65.55;99804.75;691673;28;1307;-86
2023/01/13 00:45:45;;;;;;;3.17;2.10;;;;;;;12.40;65.55;99807.41;688955;28;1258;-85
2023/01/13 00:46:33;;;;;;;2.75;2.00;;;;;;;12.40;65.99;99816.13;688877;28;1041;-86
2023/01/13 00:46:53;;;;;;;2.10;1.90;;;;;;;12.37;65.73;99805.66;694228;28;1128;-87
2023/01/13 00:47:17;;;;;;;2.20;2.10;;;;;;;12.37;65.96;99807.38;694313;28;960;-87
2023/01/13 00:47:37;;;;;;;2.33;2.13;;;;;;;12.43;65.74;99816.13;694187;28;1096;-87
2023/01/13 00:47:58;;;;;;;2.20;2.10;;;;;;;12.46;65.61;99815.25;688655;28;1450;-86
2023/01/13 00:48:20;;;;;;;2.00;1.90;;;;;;;12.43;65.85;99816.13;688701;28;1299;-86
2023/01/13 00:48:41;;;;;;;2.20;2.00;;;;;;;12.45;65.63;99821.38;685950;28;1506;-86
2023/01/13 00:49:01;;;;;;;3.05;2.15;;;;;;;12.44;65.95;99819.63;688757;28;961;-86
2023/01/13 00:49:22;;;;;;;3.30;2.20;;;;;;;12.43;65.60;99815.25;688662;28;1303;-86
2023/01/13 00:49:43;;;;;;;2.70;2.00;;;;;;;12.45;65.91;99808.28;688673;28;993;-86
2023/01/13 00:50:04;;;;;;;2.20;1.90;;;;;;;12.46;65.87;99815.25;688663;28;1189;-87
2023/01/13 00:50:25;;;;;;;2.20;2.00;;;;;;;12.42;65.94;99818.75;691374;28;1228;-87
2023/01/13 00:51:00;;;;;;;2.05;1.85;;;;;;;12.44;65.88;99819.63;688563;28;1165;-86
2023/01/13 00:51:21;;;;;;;1.90;1.80;;;;;;;12.37;65.89;99815.22;685878;28;1316;-86
2023/01/13 00:51:42;;;;;;;2.00;1.90;;;;;;;12.40;66.18;99817.88;691277;28;1227;-86
2023/01/13 00:52:02;;;;;;;2.10;2.00;;;;;;;12.44;66.00;99817.00;691250;28;1166;-86
2023/01/13 00:52:23;;;;;;;2.30;2.10;;;;;;;12.45;66.00;99822.25;691379;28;1136;-86
2023/01/13 00:52:43;;;;;;;2.28;2.08;;;;;;;12.45;65.98;99819.63;696837;28;975;-86
2023/01/13 00:53:04;;;;;;;2.30;2.10;;;;;;;12.44;65.93;99814.38;696757;28;1205;-87
2023/01/13 00:53:26;;;;;;;2.77;2.20;;;;;;;12.51;65.95;99826.63;699758;28;1406;-87
2023/01/13 00:53:49;;;;;;;2.67;2.10;;;;;;;12.48;66.08;99821.41;694040;28;1349;-87
2023/01/13 00:54:10;;;;;;;2.30;2.00;;;;;;;12.45;65.91;99819.63;691107;28;1400;-86
2023/01/13 00:54:31;;;;;;;2.00;1.80;;;;;;;12.45;65.74;99816.13;696331;28;1421;-86
2023/01/13 00:54:51;;;;;;;1.90;1.80;;;;;;;12.47;66.06;99823.13;696616;28;1293;-86
2023/01/13 00:55:12;;;;;;;1.98;1.83;;;;;;;12.47;65.95;99817.00;694113;28;1023;-86
2023/01/13 00:55:32;;;;;;;2.07;1.87;;;;;;;12.49;65.95;99812.69;691302;28;1180;-87
2023/01/13 00:56:20;;;;;;;1.90;1.80;;;;;;;12.51;66.07;99817.91;693904;28;1207;-87
2023/01/13 00:56:40;;;;;;;2.30;1.80;;;;;;;12.51;65.82;99815.28;693474;28;1187;-86
2023/01/13 00:57:02;;;;;;;2.57;1.90;;;;;;;12.45;65.75;99810.91;688609;28;1169;-87
2023/01/13 00:57:23;;;;;;;2.10;1.80;;;;;;;12.46;65.97;99815.25;685990;28;1327;-87
2023/01/13 00:57:43;;;;;;;2.45;1.90;;;;;;;12.53;65.99;99814.44;691252;28;1352;-86
2023/01/13 00:58:04;;;;;;;2.53;1.90;;;;;;;12.57;65.85;99824.06;693922;28;1222;-86
2023/01/13 00:58:25;;;;;;;2.40;1.90;;;;;;;12.46;65.93;99810.03;691256;28;1284;-86
2023/01/13 00:58:46;;;;;;;1.90;1.80;;;;;;;12.55;65.85;99831.00;688549;28;1312;-86
2023/01/13 00:59:10;;;;;;;1.88;1.77;;;;;;;12.55;66.11;99831.00;691141;28;1284;-86
2023/01/13 00:59:31;;;;;;;1.80;1.70;;;;;;;12.51;66.35;99818.78;694031;28;1273;-87
2023/01/13 00:59:51;;;;;;;1.90;1.80;;;;;;;12.48;66.04;99818.78;694182;28;1285;-85
2023/01/13 01:00:13;;;;;;;2.17;1.98;;;;;;;12.59;66.18;99842.34;693975;28;1286;-86
2023/01/13 01:00:34;;;;;;;2.40;2.10;;;;;;;12.56;65.94;99816.19;688424;28;1427;-86
2023/01/13 01:00:59;;;;;;;2.30;2.10;;;;;;;12.57;66.03;99821.44;690919;28;1201;-86
2023/01/13 01:01:21;;;;;;;2.30;2.10;;;;;;;12.54;66.21;99826.63;691329;28;1190;-86
2023/01/13 01:01:42;;;;;;;2.20;2.10;;;;;;;12.54;66.17;99824.03;694019;28;1312;-86
2023/01/13 01:02:02;;;;;;;2.10;2.00;;;;;;;12.57;66.02;99824.06;693953;28;1154;-86
2023/01/13 01:02:23;;;;;;;2.20;2.00;;;;;;;12.60;66.20;99833.66;694060;28;783;-86
2023/01/13 01:02:44;;;;;;;2.10;1.90;;;;;;;12.51;66.46;99813.56;694033;28;1143;-86
2023/01/13 01:03:11;;;;;;;2.00;1.80;;;;;;;12.53;66.18;99817.03;691134;28;1241;-86
2023/01/13 01:03:32;;;;;;;1.90;1.70;;;;;;;12.56;66.22;99817.06;691234;28;1239;-87
2023/01/13 01:03:53;;;;;;;1.92;1.70;;;;;;;12.55;66.49;99820.53;688490;28;1298;-87
2023/01/13 01:04:14;;;;;;;1.88;1.70;;;;;;;12.59;66.30;99817.06;691245;28;1297;-86
2023/01/13 01:04:34;;;;;;;1.70;1.60;;;;;;;12.59;66.30;99822.31;691249;28;1205;-86
2023/01/13 01:04:55;;;;;;;1.80;1.70;;;;;;;12.56;65.96;99814.47;693925;28;1162;-86
2023/01/13 01:05:15;;;;;;;2.07;1.87;;;;;;;12.52;66.31;99815.28;693953;28;1151;-87
2023/01/13 01:05:38;;;;;;;2.53;2.00;;;;;;;12.50;66.50;99806.56;691135;28;1205;-86
2023/01/13 01:06:11;;;;;;;2.60;1.90;;;;;;;12.48;66.42;99813.56;691115;28;1121;-86
2023/01/13 01:06:32;;;;;;;1.85;1.67;;;;;;;12.51;66.16;99820.50;688498;28;1278;-87
2023/01/13 01:06:53;;;;;;;1.88;1.70;;;;;;;12.54;66.50;99818.78;693800;28;1264;-87
2023/01/13 01:07:13;;;;;;;1.80;1.60;;;;;;;12.56;66.70;99822.31;691335;28;1301;-85
2023/01/13 01:07:34;;;;;;;2.10;1.70;;;;;;;12.53;66.64;99806.56;688667;28;850;-86
2023/01/13 01:07:54;;;;;;;1.92;1.60;;;;;;;12.54;66.66;99823.16;691182;28;1114;-84
2023/01/13 01:08:15;;;;;;;1.70;1.60;;;;;;;12.53;66.73;99814.44;691212;28;1290;-85
2023/01/13 01:08:36;;;;;;;1.90;1.50;;;;;;;12.50;66.35;99824.00;688418;28;1328;-87
2023/01/13 01:08:57;;;;;;;2.00;1.50;;;;;;;12.64;66.50;99826.72;691144;28;1180;-87
2023/01/13 01:09:18;;;;;;;2.00;1.50;;;;;;;12.60;66.61;99817.97;688509;28;1433;-87
2023/01/13 01:09:38;;;;;;;1.80;1.70;;;;;;;12.57;66.80;99808.34;685749;28;1276;-86
2023/01/13 01:09:59;;;;;;;2.00;1.90;;;;;;;12.65;66.61;99825.84;691055;28;1235;-86
2023/01/13 01:10:20;;;;;;;2.27;2.07;;;;;;;12.63;66.42;99804.88;688604;28;1237;-87
2023/01/13 01:10:40;;;;;;;2.20;2.00;;;;;;;12.68;66.29;99831.06;685830;28;1025;-87
2023/01/13 01:11:18;;;;;;;2.27;2.00;;;;;;;12.63;66.63;99815.34;685729;28;1236;-87
2023/01/13 01:11:42;;;;;;;2.18;1.98;;;;;;;12.70;66.52;99803.16;685769;28;1304;-87
2023/01/13 01:12:03;;;;;;;2.00;1.80;;;;;;;12.70;66.39;99808.38;685737;28;1024;-87
2023/01/13 01:12:24;;;;;;;2.00;1.80;;;;;;;12.76;66.37;99829.34;691160;28;1555;-87
2023/01/13 01:12:45;;;;;;;1.75;1.65;;;;;;;12.76;66.29;99826.75;691233;28;1264;-87
2023/01/13 01:13:05;;;;;;;1.80;1.70;;;;;;;12.79;66.35;99831.97;688464;28;1213;-88
2023/01/13 01:13:26;;;;;;;1.80;1.70;;;;;;;12.82;66.22;99829.38;693851;28;1099;-87
2023/01/13 01:13:47;;;;;;;1.75;1.65;;;;;;;12.83;66.17;99830.25;691252;28;1102;-87
2023/01/13 01:14:10;;;;;;;1.60;1.50;;;;;;;12.78;66.20;99811.91;696761;28;1355;-87
2023/01/13 01:14:31;;;;;;;1.50;1.40;;;;;;;12.82;65.85;99813.69;696957;28;862;-87
2023/01/13 01:14:51;;;;;;;1.65;1.50;;;;;;;12.83;66.15;99819.75;693733;28;1226;-87
2023/01/13 01:15:12;;;;;;;1.83;1.52;;;;;;;12.89;66.09;99818.06;693828;28;1305;-86
2023/01/13 01:15:33;;;;;;;2.20;1.60;;;;;;;12.85;66.02;99803.19;691146;28;1374;-86
2023/01/13 01:15:54;;;;;;;2.40;1.50;;;;;;;12.88;65.83;99818.06;693904;28;1043;-87
2023/01/13 01:16:16;;;;;;;2.50;1.50;;;;;;;12.86;65.62;99810.19;693993;28;1015;-87
2023/01/13 01:16:38;;;;;;;2.65;1.40;;;;;;;12.95;65.68;99825.09;693888;28;1898;-87
2023/01/13 01:16:59;;;;;;;2.15;1.35;;;;;;;12.90;65.87;99818.91;693872;28;932;-86
2023/01/13 01:17:19;;;;;;;3.40;1.40;;;;;;;12.95;65.50;99818.97;688422;28;1167;-87
2023/01/13 01:17:40;;;;;;;2.72;1.50;;;;;;;12.95;65.65;99811.09;688360;28;1098;-87
2023/01/13 01:18:00;;;;;;;2.85;1.60;;;;;;;13.04;65.54;99829.50;688582;28;1099;-86
2023/01/13 01:18:21;;;;;;;1.70;1.60;;;;;;;12.96;65.36;99826.84;685955;28;1364;-85
2023/01/13 01:18:45;;;;;;;1.75;1.60;;;;;;;13.01;65.47;99832.09;691209;28;1199;-85
2023/01/13 01:19:06;;;;;;;1.60;1.40;;;;;;;13.01;65.34;99826.84;691026;28;1541;-84
2023/01/13 01:19:27;;;;;;;1.60;1.40;;;;;;;13.06;65.36;99832.97;688510;28;1380;-85
2023/01/13 01:19:47;;;;;;;2.92;1.38;;;;;;;13.02;65.62;99824.25;688415;28;1027;-85
2023/01/13 01:20:09;;;;;;;5.30;1.50;;;;;;;13.02;65.52;99820.72;696498;28;1156;-85
2023/01/13 01:20:29;;;;;;;5.65;1.40;;;;;;;13.03;65.55;99812.00;693882;28;1449;-84
2023/01/13 01:20:50;;;;;;;3.53;1.48;;;;;;;13.05;65.43;99826.00;688480;28;1297;-87
2023/01/13 01:21:12;;;;;;;2.88;1.42;;;;;;;13.07;65.53;99826.88;691094;28;1172;-85
2023/01/13 01:21:33;;;;;;;2.67;1.40;;;;;;;13.10;65.15;99829.47;688386;28;1233;-86
2023/01/13 01:21:54;;;;;;;2.75;1.60;;;;;;;13.15;64.92;99816.44;688324;28;1280;-85
2023/01/13 01:22:15;;;;;;;1.83;1.70;;;;;;;13.14;65.00;99830.38;691285;28;1234;-85
2023/01/13 01:22:37;;;;;;;2.47;1.70;;;;;;;13.17;64.88;99819.91;688546;28;1218;-85
2023/01/13 01:22:59;;;;;;;2.20;1.35;;;;;;;13.18;64.90;99836.47;685702;28;1209;-84
2023/01/13 01:23:20;;;;;;;2.70;1.30;;;;;;;13.13;64.85;99829.50;688541;28;1081;-85
2023/01/13 01:23:42;;;;;;;2.20;1.40;;;;;;;13.20;64.79;99830.38;688379;28;1170;-84
2023/01/13 01:24:03;;;;;;;2.42;1.50;;;;;;;13.16;64.66;99816.41;688504;28;1271;-85
2023/01/13 01:24:24;;;;;;;1.90;1.40;;;;;;;13.20;64.88;99840.00;685797;28;1264;-84
2023/01/13 01:24:46;;;;;;;2.13;1.48;;;;;;;13.15;64.68;99822.53;691080;28;1173;-84
2023/01/13 01:25:07;;;;;;;2.50;1.50;;;;;;;13.13;64.71;99823.38;690970;28;1436;-84
2023/01/13 01:25:27;;;;;;;2.60;1.67;;;;;;;13.06;64.63;99822.50;691151;28;1054;-85
2023/01/13 01:25:48;;;;;;;3.22;1.75;;;;;;;13.20;64.55;99847.88;688401;28;996;-84
2023/01/13 01:26:14;;;;;;;2.70;1.70;;;;;;;13.17;64.38;99830.41;685828;28;1007;-84
2023/01/13 01:26:35;;;;;;;3.00;1.70;;;;;;;13.12;64.23;99819.03;691062;28;1238;-85
2023/01/13 01:26:55;;;;;;;2.78;1.80;;;;;;;13.12;64.05;99827.75;691002;28;1088;-85
2023/01/13 01:27:16;;;;;;;3.05;1.92;;;;;;;13.15;64.20;99833.00;688529;28;985;-85
2023/01/13 01:27:38;;;;;;;5.50;1.90;;;;;;;13.11;64.09;99836.50;688318;28;1150;-85
2023/01/13 01:27:58;;;;;;;6.55;1.70;;;;;;;13.14;64.17;99828.63;688443;28;1522;-85
2023/01/13 01:28:19;;;;;;;6.65;1.60;;;;;;;13.13;64.36;99828.63;688396;28;1090;-85
2023/01/13 01:28:40;;;;;;;2.50;1.60;;;;;;;13.09;64.00;99827.75;693831;28;1397;-85
2023/01/13 01:29:01;;;;;;;2.92;1.80;;;;;;;13.04;64.15;99829.50;685698;28;1125;-84
2023/01/13 01:29:21;;;;;;;2.75;1.70;;;;;;;13.01;64.06;99830.34;691330;28;894;-84
2023/01/13 01:29:47;;;;;;;2.93;1.70;;;;;;;13.05;64.17;99823.38;691007;28;1225;-84
2023/01/13 01:30:09;;;;;;;2.63;1.50;;;;;;;12.98;64.10;99824.22;691198;28;986;-85
2023/01/13 01:30:29;;;;;;;3.50;1.70;;;;;;;12.93;64.02;99825.91;688357;28;1297;-85
2023/01/13 01:30:50;;;;;;;3.30;1.60;;;;;;;12.96;64.14;99820.75;688403;28;1144;-84
2023/01/13 01:31:17;;;;;;;5.20;1.80;;;;;;;12.99;63.89;99841.69;688502;28;1035;-85
2023/01/13 01:31:37;;;;;;;4.80;1.90;;;;;;;12.93;63.91;99825.91;691163;28;1023;-84
2023/01/13 01:31:58;;;;;;;6.03;2.03;;;;;;;12.98;63.73;99834.72;691185;28;944;-85
2023/01/13 01:32:19;;;;;;;4.40;2.00;;;;;;;12.98;63.98;99830.31;691141;28;1196;-85
2023/01/13 01:32:39;;;;;;;3.78;1.98;;;;;;;13.07;64.01;99844.31;688342;28;1081;-85
2023/01/13 01:33:02;;;;;;;4.45;2.20;;;;;;;13.03;63.75;99827.72;688384;28;1252;-85
2023/01/13 01:33:23;;;;;;;6.00;2.30;;;;;;;13.10;63.42;99847.81;688630;28;905;-85
2023/01/13 01:33:47;;;;;;;6.38;2.28;;;;;;;13.07;63.56;99849.56;691017;28;1444;-85
2023/01/13 01:34:08;;;;;;;5.10;2.10;;;;;;;12.98;63.32;99830.31;691160;28;1116;-84
2023/01/13 01:34:28;;;;;;;4.47;2.30;;;;;;;12.97;63.04;99814.63;685740;28;1158;-85
2023/01/13 01:34:50;;;;;;;5.70;2.38;;;;;;;12.96;63.12;99831.22;688235;28;1198;-84
2023/01/13 01:35:10;;;;;;;6.78;2.40;;;;;;;12.94;63.12;99827.69;691162;28;1075;-84
2023/01/13 01:35:31;;;;;;;6.20;2.17;;;;;;;12.93;62.92;99836.41;693819;28;1084;-84
2023/01/13 01:35:53;;;;;;;6.13;1.90;;;;;;;12.99;62.62;99832.09;688211;28;1199;-84
2023/01/13 01:36:16;;;;;;;4.60;1.70;;;;;;;12.90;62.87;99824.16;688441;28;1338;-83
2023/01/13 01:36:38;;;;;;;6.18;2.20;;;;;;;12.87;62.43;99834.63;693791;28;1910;-83
2023/01/13 01:36:58;;;;;;;5.20;2.50;;;;;;;12.88;62.65;99829.41;687932;28;1296;-84
2023/01/13 01:37:19;;;;;;;5.85;2.70;;;;;;;12.83;62.83;99825.00;691105;28;1109;-84
2023/01/13 01:37:40;;;;;;;6.77;2.77;;;;;;;12.98;62.50;99837.31;690943;28;1092;-84
2023/01/13 01:38:00;;;;;;;7.03;2.45;;;;;;;12.94;62.32;99833.81;688303;28;1189;-84
2023/01/13 01:38:22;;;;;;;10.20;2.67;;;;;;;12.91;62.64;99825.91;688452;28;1071;-85
2023/01/13 01:38:43;;;;;;;8.65;2.40;;;;;;;12.85;62.57;99818.06;691067;28;1380;-84
2023/01/13 01:39:05;;;;;;;7.00;2.33;;;;;;;12.87;62.63;99817.19;690944;28;1137;-84
2023/01/13 01:39:26;;;;;;;3.25;2.10;;;;;;;12.97;62.30;99819.88;688431;28;1196;-84
2023/01/13 01:39:47;;;;;;;3.10;2.05;;;;;;;12.95;62.05;99829.44;691040;28;1345;-84
2023/01/13 01:40:09;;;;;;;4.70;2.20;;;;;;;12.94;62.17;99818.09;688405;28;1297;-85
2023/01/13 01:40:29;;;;;;;5.20;2.20;;;;;;;13.01;62.28;99832.09;688555;28;830;-85
2023/01/13 01:40:50;;;;;;;5.65;2.28;;;;;;;12.96;62.19;99826.84;688348;28;1202;-84
2023/01/13 01:41:19;;;;;;;4.97;2.23;;;;;;;12.96;62.16;99831.22;688420;28;1004;-84
2023/01/13 01:43:57;;;;;;;4.75;2.20;;;;;;;12.93;61.87;99820.69;688377;28;1375;-84
2023/01/13 01:43:58;;;;;;;3.33;2.20;;;;;;;12.96;62.26;99831.22;696221;28;989;-84
2023/01/13 01:44:40;;;;;;;2.80;1.90;;;;;;;12.97;62.20;99836.44;693791;28;1088;-84
2023/01/13 01:45:13;;;;;;;5.50;2.35;;;;;;;13.03;62.20;99819.84;696323;28;926;-84
2023/01/13 01:45:33;;;;;;;6.43;2.50;;;;;;;12.93;61.93;99808.50;691047;28;1414;-84
2023/01/13 01:45:54;;;;;;;5.10;2.20;;;;;;;12.95;62.20;99813.72;688281;28;1306;-84
2023/01/13 01:46:14;;;;;;;5.97;2.30;;;;;;;12.96;62.50;99818.97;691112;28;1170;-84
2023/01/13 01:46:42;;;;;;;4.23;2.00;;;;;;;12.96;62.25;99812.88;688382;28;1051;-85
2023/01/13 01:47:03;;;;;;;5.93;2.13;;;;;;;12.89;62.33;99818.06;688177;28;1461;-84
2023/01/13 01:47:26;;;;;;;5.97;2.20;;;;;;;12.89;62.37;99820.69;696491;28;1212;-84
2023/01/13 01:47:52;;;;;;;4.38;2.10;;;;;;;12.98;62.40;99824.22;690978;28;921;-84
2023/01/13 01:48:13;;;;;;;3.28;1.90;;;;;;;13.04;62.41;99833.84;691088;28;1144;-84
2023/01/13 01:48:38;;;;;;;3.28;1.98;;;;;;;12.92;62.33;99825.06;691059;28;803;-84
2023/01/13 01:49:30;;;;;;;2.72;1.88;;;;;;;13.02;62.33;99836.44;691070;28;1230;-84
2023/01/13 01:49:51;;;;;;;3.92;1.90;;;;;;;12.92;62.34;99817.22;691374;28;1172;-84
2023/01/13 01:50:12;;;;;;;5.20;1.80;;;;;;;12.94;62.49;99827.69;690778;28;1283;-84